sensor_id;sensor_type;location;lat;lon;timestamp;P1;durP1;ratioP1;P2;durP2;ratioP2
16330;SDS011;8275;48.206;16.340;2022-12-18T00:00:09;4.77;;;4.17;;
16330;SDS011;8275;48.206;16.340;2022-12-18T00:02:39;5.73;;;4.67;;
16330;SDS011;8275;48.206;16.340;2022-12-18T00:05:09;8.33;;;4.30;;
16330;SDS011;8275;48.206;16.340;2022-12-18T00:07:37;6.53;;;4.90;;
16330;SDS011;8275;48.206;16.340;2022-12-18T00:10:06;6.57;;;5.03;;
16330;SDS011;8275;48.206;16.340;2022-12-18T00:12:35;6.73;;;5.33;;
16330;SDS011;8275;48.206;16.340;2022-12-18T00:15:04;7.00;;;4.70;;
16330;SDS011;8275;48.206;16.340;2022-12-18T00:17:34;8.17;;;5.67;;
16330;SDS011;8275;48.206;16.340;2022-12-18T00:20:03;5.47;;;4.50;;
16330;SDS011;8275;48.206;16.340;2022-12-18T00:22:34;6.67;;;5.13;;
16330;SDS011;8275;48.206;16.340;2022-12-18T00:25:02;7.20;;;4.70;;
16330;SDS011;8275;48.206;16.340;2022-12-18T00:27:32;5.03;;;3.57;;
16330;SDS011;8275;48.206;16.340;2022-12-18T00:30:00;6.17;;;4.17;;
16330;SDS011;8275;48.206;16.340;2022-12-18T00:32:28;4.40;;;3.70;;
16330;SDS011;8275;48.206;16.340;2022-12-18T00:34:57;7.00;;;5.17;;
16330;SDS011;8275;48.206;16.340;2022-12-18T00:37:26;5.97;;;4.23;;
16330;SDS011;8275;48.206;16.340;2022-12-18T00:39:56;6.90;;;4.33;;
16330;SDS011;8275;48.206;16.340;2022-12-18T00:42:24;5.93;;;3.93;;
16330;SDS011;8275;48.206;16.340;2022-12-18T00:45:10;3.40;;;3.07;;
16330;SDS011;8275;48.206;16.340;2022-12-18T00:47:39;4.70;;;4.03;;
16330;SDS011;8275;48.206;16.340;2022-12-18T00:50:08;5.87;;;4.83;;
16330;SDS011;8275;48.206;16.340;2022-12-18T00:52:37;9.67;;;4.80;;
16330;SDS011;8275;48.206;16.340;2022-12-18T00:55:10;5.53;;;3.43;;
16330;SDS011;8275;48.206;16.340;2022-12-18T00:57:39;4.83;;;3.47;;
16330;SDS011;8275;48.206;16.340;2022-12-18T01:00:09;4.73;;;3.80;;
16330;SDS011;8275;48.206;16.340;2022-12-18T01:02:41;7.80;;;4.70;;
16330;SDS011;8275;48.206;16.340;2022-12-18T01:05:10;6.03;;;3.93;;
16330;SDS011;8275;48.206;16.340;2022-12-18T01:07:40;4.93;;;3.67;;
16330;SDS011;8275;48.206;16.340;2022-12-18T01:10:11;5.83;;;4.73;;
16330;SDS011;8275;48.206;16.340;2022-12-18T01:12:40;4.67;;;4.27;;
16330;SDS011;8275;48.206;16.340;2022-12-18T01:15:09;8.97;;;4.87;;
16330;SDS011;8275;48.206;16.340;2022-12-18T01:17:39;5.47;;;4.37;;
16330;SDS011;8275;48.206;16.340;2022-12-18T01:20:09;6.00;;;4.03;;
16330;SDS011;8275;48.206;16.340;2022-12-18T01:22:39;7.87;;;4.93;;
16330;SDS011;8275;48.206;16.340;2022-12-18T01:25:08;6.47;;;4.73;;
16330;SDS011;8275;48.206;16.340;2022-12-18T01:27:38;6.63;;;4.43;;
16330;SDS011;8275;48.206;16.340;2022-12-18T01:30:07;7.77;;;5.70;;
16330;SDS011;8275;48.206;16.340;2022-12-18T01:32:36;9.27;;;5.37;;
16330;SDS011;8275;48.206;16.340;2022-12-18T01:35:05;10.37;;;6.67;;
16330;SDS011;8275;48.206;16.340;2022-12-18T01:37:35;8.13;;;6.87;;
16330;SDS011;8275;48.206;16.340;2022-12-18T01:40:04;8.80;;;6.73;;
16330;SDS011;8275;48.206;16.340;2022-12-18T01:42:36;8.23;;;5.60;;
16330;SDS011;8275;48.206;16.340;2022-12-18T01:45:21;8.20;;;5.93;;
16330;SDS011;8275;48.206;16.340;2022-12-18T01:47:53;8.83;;;5.83;;
16330;SDS011;8275;48.206;16.340;2022-12-18T01:50:27;6.70;;;4.77;;
16330;SDS011;8275;48.206;16.340;2022-12-18T01:53:02;7.53;;;6.07;;
16330;SDS011;8275;48.206;16.340;2022-12-18T01:55:35;9.07;;;6.80;;
16330;SDS011;8275;48.206;16.340;2022-12-18T01:58:10;7.97;;;6.23;;
16330;SDS011;8275;48.206;16.340;2022-12-18T02:00:38;9.37;;;6.67;;
16330;SDS011;8275;48.206;16.340;2022-12-18T02:03:07;11.20;;;6.60;;
16330;SDS011;8275;48.206;16.340;2022-12-18T02:05:38;10.97;;;7.53;;
16330;SDS011;8275;48.206;16.340;2022-12-18T02:08:13;11.53;;;7.87;;
16330;SDS011;8275;48.206;16.340;2022-12-18T02:10:51;11.83;;;8.77;;
16330;SDS011;8275;48.206;16.340;2022-12-18T02:13:30;10.57;;;6.30;;
16330;SDS011;8275;48.206;16.340;2022-12-18T02:16:09;9.97;;;7.07;;
16330;SDS011;8275;48.206;16.340;2022-12-18T02:18:48;9.37;;;7.17;;
16330;SDS011;8275;48.206;16.340;2022-12-18T02:21:25;7.47;;;5.87;;
16330;SDS011;8275;48.206;16.340;2022-12-18T02:24:08;6.97;;;6.20;;
16330;SDS011;8275;48.206;16.340;2022-12-18T02:26:53;7.93;;;6.03;;
16330;SDS011;8275;48.206;16.340;2022-12-18T02:29:25;9.13;;;6.77;;
16330;SDS011;8275;48.206;16.340;2022-12-18T02:32:01;14.70;;;9.07;;
16330;SDS011;8275;48.206;16.340;2022-12-18T02:34:34;10.57;;;7.00;;
16330;SDS011;8275;48.206;16.340;2022-12-18T02:37:07;12.63;;;8.50;;
16330;SDS011;8275;48.206;16.340;2022-12-18T02:39:40;9.77;;;7.83;;
16330;SDS011;8275;48.206;16.340;2022-12-18T02:42:13;9.23;;;7.57;;
16330;SDS011;8275;48.206;16.340;2022-12-18T02:44:42;14.23;;;8.30;;
16330;SDS011;8275;48.206;16.340;2022-12-18T02:47:12;12.00;;;6.80;;
16330;SDS011;8275;48.206;16.340;2022-12-18T02:49:49;10.77;;;7.40;;
16330;SDS011;8275;48.206;16.340;2022-12-18T02:52:31;9.17;;;6.57;;
16330;SDS011;8275;48.206;16.340;2022-12-18T02:55:09;9.70;;;6.53;;
16330;SDS011;8275;48.206;16.340;2022-12-18T02:57:53;12.50;;;8.07;;
16330;SDS011;8275;48.206;16.340;2022-12-18T03:00:27;8.53;;;6.27;;
16330;SDS011;8275;48.206;16.340;2022-12-18T03:03:03;11.83;;;7.30;;
16330;SDS011;8275;48.206;16.340;2022-12-18T03:05:40;9.80;;;6.33;;
16330;SDS011;8275;48.206;16.340;2022-12-18T03:08:15;9.50;;;6.97;;
16330;SDS011;8275;48.206;16.340;2022-12-18T03:10:49;8.90;;;7.57;;
16330;SDS011;8275;48.206;16.340;2022-12-18T03:13:24;10.53;;;7.60;;
16330;SDS011;8275;48.206;16.340;2022-12-18T03:15:58;8.80;;;6.00;;
16330;SDS011;8275;48.206;16.340;2022-12-18T03:18:30;10.43;;;6.53;;
16330;SDS011;8275;48.206;16.340;2022-12-18T03:21:04;9.30;;;6.23;;
16330;SDS011;8275;48.206;16.340;2022-12-18T03:23:36;11.07;;;7.63;;
16330;SDS011;8275;48.206;16.340;2022-12-18T03:26:12;12.43;;;7.83;;
16330;SDS011;8275;48.206;16.340;2022-12-18T03:28:49;9.00;;;6.43;;
16330;SDS011;8275;48.206;16.340;2022-12-18T03:31:24;9.27;;;6.70;;
16330;SDS011;8275;48.206;16.340;2022-12-18T03:33:57;10.60;;;7.03;;
16330;SDS011;8275;48.206;16.340;2022-12-18T03:36:31;9.70;;;6.53;;
16330;SDS011;8275;48.206;16.340;2022-12-18T03:39:00;11.10;;;6.83;;
16330;SDS011;8275;48.206;16.340;2022-12-18T03:41:30;7.53;;;6.70;;
16330;SDS011;8275;48.206;16.340;2022-12-18T03:44:05;9.83;;;6.57;;
16330;SDS011;8275;48.206;16.340;2022-12-18T03:46:41;9.50;;;6.07;;
16330;SDS011;8275;48.206;16.340;2022-12-18T03:49:23;11.30;;;7.10;;
16330;SDS011;8275;48.206;16.340;2022-12-18T03:52:00;9.67;;;7.67;;
16330;SDS011;8275;48.206;16.340;2022-12-18T03:54:32;8.97;;;6.20;;
16330;SDS011;8275;48.206;16.340;2022-12-18T03:57:04;10.93;;;6.90;;
16330;SDS011;8275;48.206;16.340;2022-12-18T03:59:38;10.50;;;8.33;;
16330;SDS011;8275;48.206;16.340;2022-12-18T04:02:08;9.10;;;7.67;;
16330;SDS011;8275;48.206;16.340;2022-12-18T04:04:37;9.70;;;7.33;;
16330;SDS011;8275;48.206;16.340;2022-12-18T04:07:07;6.97;;;5.97;;
16330;SDS011;8275;48.206;16.340;2022-12-18T04:09:36;9.30;;;6.30;;
16330;SDS011;8275;48.206;16.340;2022-12-18T04:12:09;10.50;;;6.90;;
16330;SDS011;8275;48.206;16.340;2022-12-18T04:14:38;10.30;;;8.17;;
16330;SDS011;8275;48.206;16.340;2022-12-18T04:17:07;8.17;;;6.13;;
16330;SDS011;8275;48.206;16.340;2022-12-18T04:19:35;10.67;;;6.70;;
16330;SDS011;8275;48.206;16.340;2022-12-18T04:22:03;7.87;;;6.07;;
16330;SDS011;8275;48.206;16.340;2022-12-18T04:24:32;9.77;;;7.30;;
16330;SDS011;8275;48.206;16.340;2022-12-18T04:27:00;11.43;;;7.83;;
16330;SDS011;8275;48.206;16.340;2022-12-18T04:29:29;11.10;;;8.43;;
16330;SDS011;8275;48.206;16.340;2022-12-18T04:31:59;11.43;;;6.80;;
16330;SDS011;8275;48.206;16.340;2022-12-18T04:34:28;10.07;;;6.97;;
16330;SDS011;8275;48.206;16.340;2022-12-18T04:36:56;10.97;;;6.80;;
16330;SDS011;8275;48.206;16.340;2022-12-18T04:39:25;9.17;;;6.90;;
16330;SDS011;8275;48.206;16.340;2022-12-18T04:41:53;10.60;;;7.47;;
16330;SDS011;8275;48.206;16.340;2022-12-18T04:44:22;8.10;;;6.90;;
16330;SDS011;8275;48.206;16.340;2022-12-18T04:46:50;12.83;;;7.20;;
16330;SDS011;8275;48.206;16.340;2022-12-18T04:49:21;8.30;;;6.87;;
16330;SDS011;8275;48.206;16.340;2022-12-18T04:51:49;9.80;;;6.67;;
16330;SDS011;8275;48.206;16.340;2022-12-18T04:54:19;10.33;;;7.30;;
16330;SDS011;8275;48.206;16.340;2022-12-18T04:56:47;9.53;;;5.83;;
16330;SDS011;8275;48.206;16.340;2022-12-18T04:59:16;7.70;;;6.03;;
16330;SDS011;8275;48.206;16.340;2022-12-18T05:01:44;11.50;;;7.17;;
16330;SDS011;8275;48.206;16.340;2022-12-18T05:04:13;13.77;;;7.13;;
16330;SDS011;8275;48.206;16.340;2022-12-18T05:06:44;12.13;;;7.23;;
16330;SDS011;8275;48.206;16.340;2022-12-18T05:09:13;11.90;;;7.23;;
16330;SDS011;8275;48.206;16.340;2022-12-18T05:11:41;10.30;;;7.90;;
16330;SDS011;8275;48.206;16.340;2022-12-18T05:14:11;11.00;;;8.17;;
16330;SDS011;8275;48.206;16.340;2022-12-18T05:16:39;7.77;;;6.27;;
16330;SDS011;8275;48.206;16.340;2022-12-18T05:19:09;11.93;;;8.57;;
16330;SDS011;8275;48.206;16.340;2022-12-18T05:21:38;9.60;;;6.47;;
16330;SDS011;8275;48.206;16.340;2022-12-18T05:24:08;9.90;;;6.90;;
16330;SDS011;8275;48.206;16.340;2022-12-18T05:26:36;9.17;;;7.30;;
16330;SDS011;8275;48.206;16.340;2022-12-18T05:29:04;13.53;;;9.07;;
16330;SDS011;8275;48.206;16.340;2022-12-18T05:31:33;15.07;;;8.90;;
16330;SDS011;8275;48.206;16.340;2022-12-18T05:34:05;12.33;;;7.73;;
16330;SDS011;8275;48.206;16.340;2022-12-18T05:36:33;11.37;;;7.90;;
16330;SDS011;8275;48.206;16.340;2022-12-18T05:39:02;9.77;;;7.63;;
16330;SDS011;8275;48.206;16.340;2022-12-18T05:41:32;8.80;;;6.27;;
16330;SDS011;8275;48.206;16.340;2022-12-18T05:44:01;9.67;;;7.57;;
16330;SDS011;8275;48.206;16.340;2022-12-18T05:46:31;9.13;;;6.73;;
16330;SDS011;8275;48.206;16.340;2022-12-18T05:48:59;8.93;;;6.20;;
16330;SDS011;8275;48.206;16.340;2022-12-18T05:51:28;7.07;;;5.47;;
16330;SDS011;8275;48.206;16.340;2022-12-18T05:53:57;9.83;;;6.47;;
16330;SDS011;8275;48.206;16.340;2022-12-18T05:56:26;8.47;;;6.53;;
16330;SDS011;8275;48.206;16.340;2022-12-18T05:58:55;12.50;;;8.27;;
16330;SDS011;8275;48.206;16.340;2022-12-18T06:01:25;11.37;;;8.17;;
16330;SDS011;8275;48.206;16.340;2022-12-18T06:03:54;12.80;;;8.77;;
16330;SDS011;8275;48.206;16.340;2022-12-18T06:06:24;12.93;;;7.67;;
16330;SDS011;8275;48.206;16.340;2022-12-18T06:08:55;9.20;;;6.27;;
16330;SDS011;8275;48.206;16.340;2022-12-18T06:11:25;10.70;;;7.07;;
16330;SDS011;8275;48.206;16.340;2022-12-18T06:13:56;10.13;;;6.80;;
16330;SDS011;8275;48.206;16.340;2022-12-18T06:16:26;8.83;;;7.10;;
16330;SDS011;8275;48.206;16.340;2022-12-18T06:18:56;9.10;;;6.13;;
16330;SDS011;8275;48.206;16.340;2022-12-18T06:21:25;12.53;;;7.13;;
16330;SDS011;8275;48.206;16.340;2022-12-18T06:23:54;14.70;;;8.53;;
16330;SDS011;8275;48.206;16.340;2022-12-18T06:26:23;13.07;;;10.50;;
16330;SDS011;8275;48.206;16.340;2022-12-18T06:28:53;12.17;;;8.33;;
16330;SDS011;8275;48.206;16.340;2022-12-18T06:31:24;14.77;;;8.87;;
16330;SDS011;8275;48.206;16.340;2022-12-18T06:33:53;10.90;;;8.00;;
16330;SDS011;8275;48.206;16.340;2022-12-18T06:36:21;13.97;;;8.97;;
16330;SDS011;8275;48.206;16.340;2022-12-18T06:38:49;10.97;;;8.40;;
16330;SDS011;8275;48.206;16.340;2022-12-18T06:41:18;11.50;;;7.10;;
16330;SDS011;8275;48.206;16.340;2022-12-18T06:43:49;12.13;;;7.80;;
16330;SDS011;8275;48.206;16.340;2022-12-18T06:46:26;10.00;;;7.33;;
16330;SDS011;8275;48.206;16.340;2022-12-18T06:48:54;8.13;;;6.13;;
16330;SDS011;8275;48.206;16.340;2022-12-18T06:51:24;12.17;;;7.77;;
16330;SDS011;8275;48.206;16.340;2022-12-18T06:53:54;11.73;;;8.43;;
16330;SDS011;8275;48.206;16.340;2022-12-18T06:56:22;12.80;;;8.17;;
16330;SDS011;8275;48.206;16.340;2022-12-18T06:58:50;11.10;;;8.43;;
16330;SDS011;8275;48.206;16.340;2022-12-18T07:01:19;10.73;;;7.30;;
16330;SDS011;8275;48.206;16.340;2022-12-18T07:03:52;13.00;;;7.97;;
16330;SDS011;8275;48.206;16.340;2022-12-18T07:06:22;19.50;;;10.37;;
16330;SDS011;8275;48.206;16.340;2022-12-18T07:08:53;12.50;;;7.63;;
16330;SDS011;8275;48.206;16.340;2022-12-18T07:11:22;14.67;;;7.37;;
16330;SDS011;8275;48.206;16.340;2022-12-18T07:13:51;13.20;;;8.33;;
16330;SDS011;8275;48.206;16.340;2022-12-18T07:16:21;13.53;;;8.90;;
16330;SDS011;8275;48.206;16.340;2022-12-18T07:18:53;12.80;;;8.60;;
16330;SDS011;8275;48.206;16.340;2022-12-18T07:21:23;11.57;;;8.77;;
16330;SDS011;8275;48.206;16.340;2022-12-18T07:23:52;11.63;;;7.73;;
16330;SDS011;8275;48.206;16.340;2022-12-18T07:26:21;12.60;;;8.70;;
16330;SDS011;8275;48.206;16.340;2022-12-18T07:28:49;14.77;;;9.13;;
16330;SDS011;8275;48.206;16.340;2022-12-18T07:31:18;13.40;;;8.27;;
16330;SDS011;8275;48.206;16.340;2022-12-18T07:33:48;12.00;;;8.27;;
16330;SDS011;8275;48.206;16.340;2022-12-18T07:36:19;13.37;;;8.10;;
16330;SDS011;8275;48.206;16.340;2022-12-18T07:38:52;14.67;;;9.33;;
16330;SDS011;8275;48.206;16.340;2022-12-18T07:41:20;14.87;;;9.77;;
16330;SDS011;8275;48.206;16.340;2022-12-18T07:43:49;11.00;;;7.90;;
16330;SDS011;8275;48.206;16.340;2022-12-18T07:46:17;16.30;;;9.47;;
16330;SDS011;8275;48.206;16.340;2022-12-18T07:48:47;13.33;;;8.43;;
16330;SDS011;8275;48.206;16.340;2022-12-18T07:51:16;12.77;;;8.83;;
16330;SDS011;8275;48.206;16.340;2022-12-18T07:53:46;9.27;;;8.33;;
16330;SDS011;8275;48.206;16.340;2022-12-18T07:56:18;11.83;;;10.00;;
16330;SDS011;8275;48.206;16.340;2022-12-18T07:58:53;9.30;;;8.27;;
16330;SDS011;8275;48.206;16.340;2022-12-18T08:01:22;13.87;;;8.67;;
16330;SDS011;8275;48.206;16.340;2022-12-18T08:03:51;12.23;;;8.73;;
16330;SDS011;8275;48.206;16.340;2022-12-18T08:06:21;12.67;;;10.03;;
16330;SDS011;8275;48.206;16.340;2022-12-18T08:08:50;11.80;;;7.73;;
16330;SDS011;8275;48.206;16.340;2022-12-18T08:11:20;12.87;;;9.40;;
16330;SDS011;8275;48.206;16.340;2022-12-18T08:13:49;18.63;;;12.00;;
16330;SDS011;8275;48.206;16.340;2022-12-18T08:16:18;14.33;;;9.23;;
16330;SDS011;8275;48.206;16.340;2022-12-18T08:18:47;16.50;;;10.57;;
16330;SDS011;8275;48.206;16.340;2022-12-18T08:21:17;12.93;;;8.83;;
16330;SDS011;8275;48.206;16.340;2022-12-18T08:23:49;11.93;;;9.27;;
16330;SDS011;8275;48.206;16.340;2022-12-18T08:26:20;14.80;;;9.40;;
16330;SDS011;8275;48.206;16.340;2022-12-18T08:28:49;17.20;;;10.17;;
16330;SDS011;8275;48.206;16.340;2022-12-18T08:31:18;13.67;;;9.73;;
16330;SDS011;8275;48.206;16.340;2022-12-18T08:33:48;15.77;;;10.53;;
16330;SDS011;8275;48.206;16.340;2022-12-18T08:36:20;15.50;;;10.00;;
16330;SDS011;8275;48.206;16.340;2022-12-18T08:38:51;15.13;;;8.83;;
16330;SDS011;8275;48.206;16.340;2022-12-18T08:41:20;18.63;;;11.30;;
16330;SDS011;8275;48.206;16.340;2022-12-18T08:43:48;16.90;;;10.40;;
16330;SDS011;8275;48.206;16.340;2022-12-18T08:46:35;15.47;;;10.50;;
16330;SDS011;8275;48.206;16.340;2022-12-18T08:49:05;12.83;;;10.90;;
16330;SDS011;8275;48.206;16.340;2022-12-18T08:51:37;17.53;;;11.73;;
16330;SDS011;8275;48.206;16.340;2022-12-18T08:54:06;15.17;;;11.60;;
16330;SDS011;8275;48.206;16.340;2022-12-18T08:56:34;14.40;;;10.07;;
16330;SDS011;8275;48.206;16.340;2022-12-18T08:59:03;15.23;;;11.27;;
16330;SDS011;8275;48.206;16.340;2022-12-18T09:01:31;17.57;;;11.17;;
16330;SDS011;8275;48.206;16.340;2022-12-18T09:04:00;14.53;;;12.13;;
16330;SDS011;8275;48.206;16.340;2022-12-18T09:06:29;16.13;;;13.73;;
16330;SDS011;8275;48.206;16.340;2022-12-18T09:08:59;16.40;;;11.30;;
16330;SDS011;8275;48.206;16.340;2022-12-18T09:11:29;14.57;;;9.83;;
16330;SDS011;8275;48.206;16.340;2022-12-18T09:13:59;15.40;;;11.07;;
16330;SDS011;8275;48.206;16.340;2022-12-18T09:16:29;23.93;;;14.30;;
16330;SDS011;8275;48.206;16.340;2022-12-18T09:19:02;13.57;;;11.10;;
16330;SDS011;8275;48.206;16.340;2022-12-18T09:21:33;20.00;;;11.90;;
16330;SDS011;8275;48.206;16.340;2022-12-18T09:24:04;14.40;;;10.97;;
16330;SDS011;8275;48.206;16.340;2022-12-18T09:26:34;18.97;;;12.80;;
16330;SDS011;8275;48.206;16.340;2022-12-18T09:29:04;15.10;;;12.90;;
16330;SDS011;8275;48.206;16.340;2022-12-18T09:31:33;14.80;;;11.33;;
16330;SDS011;8275;48.206;16.340;2022-12-18T09:34:03;18.20;;;12.80;;
16330;SDS011;8275;48.206;16.340;2022-12-18T09:36:31;22.00;;;15.03;;
16330;SDS011;8275;48.206;16.340;2022-12-18T09:38:59;17.77;;;12.73;;
16330;SDS011;8275;48.206;16.340;2022-12-18T09:41:37;17.40;;;13.53;;
16330;SDS011;8275;48.206;16.340;2022-12-18T09:44:13;16.83;;;12.43;;
16330;SDS011;8275;48.206;16.340;2022-12-18T09:46:53;20.73;;;11.67;;
16330;SDS011;8275;48.206;16.340;2022-12-18T09:49:30;18.13;;;13.87;;
16330;SDS011;8275;48.206;16.340;2022-12-18T09:52:04;21.30;;;13.97;;
16330;SDS011;8275;48.206;16.340;2022-12-18T09:54:41;17.43;;;11.67;;
16330;SDS011;8275;48.206;16.340;2022-12-18T09:57:17;19.27;;;13.27;;
16330;SDS011;8275;48.206;16.340;2022-12-18T09:59:50;17.50;;;12.90;;
16330;SDS011;8275;48.206;16.340;2022-12-18T10:02:24;14.27;;;11.27;;
16330;SDS011;8275;48.206;16.340;2022-12-18T10:05:02;14.90;;;11.77;;
16330;SDS011;8275;48.206;16.340;2022-12-18T10:07:47;17.57;;;12.63;;
16330;SDS011;8275;48.206;16.340;2022-12-18T10:10:31;20.87;;;12.43;;
16330;SDS011;8275;48.206;16.340;2022-12-18T10:13:12;12.83;;;11.27;;
16330;SDS011;8275;48.206;16.340;2022-12-18T10:15:54;16.00;;;12.13;;
16330;SDS011;8275;48.206;16.340;2022-12-18T10:18:42;15.47;;;10.73;;
16330;SDS011;8275;48.206;16.340;2022-12-18T10:21:30;14.50;;;11.27;;
16330;SDS011;8275;48.206;16.340;2022-12-18T10:24:09;17.97;;;13.70;;
16330;SDS011;8275;48.206;16.340;2022-12-18T10:26:48;17.43;;;11.93;;
16330;SDS011;8275;48.206;16.340;2022-12-18T10:29:20;18.23;;;12.43;;
16330;SDS011;8275;48.206;16.340;2022-12-18T10:31:49;16.67;;;11.63;;
16330;SDS011;8275;48.206;16.340;2022-12-18T10:34:18;20.77;;;12.17;;
16330;SDS011;8275;48.206;16.340;2022-12-18T10:36:46;15.50;;;13.30;;
16330;SDS011;8275;48.206;16.340;2022-12-18T10:39:16;21.73;;;12.70;;
16330;SDS011;8275;48.206;16.340;2022-12-18T10:41:48;15.03;;;13.17;;
16330;SDS011;8275;48.206;16.340;2022-12-18T10:44:17;16.27;;;11.93;;
16330;SDS011;8275;48.206;16.340;2022-12-18T10:46:49;16.80;;;12.43;;
16330;SDS011;8275;48.206;16.340;2022-12-18T10:49:23;23.83;;;14.87;;
16330;SDS011;8275;48.206;16.340;2022-12-18T10:52:04;20.80;;;10.70;;
16330;SDS011;8275;48.206;16.340;2022-12-18T10:54:39;19.08;;;12.80;;
16330;SDS011;8275;48.206;16.340;2022-12-18T10:57:16;16.97;;;10.80;;
16330;SDS011;8275;48.206;16.340;2022-12-18T11:00:03;20.33;;;12.50;;
16330;SDS011;8275;48.206;16.340;2022-12-18T11:02:58;16.93;;;13.10;;
16330;SDS011;8275;48.206;16.340;2022-12-18T11:05:28;19.10;;;11.23;;
16330;SDS011;8275;48.206;16.340;2022-12-18T11:07:59;16.77;;;13.60;;
16330;SDS011;8275;48.206;16.340;2022-12-18T11:10:29;15.60;;;12.37;;
16330;SDS011;8275;48.206;16.340;2022-12-18T11:13:10;14.67;;;12.83;;
16330;SDS011;8275;48.206;16.340;2022-12-18T11:15:44;14.63;;;11.30;;
16330;SDS011;8275;48.206;16.340;2022-12-18T11:18:18;19.47;;;13.13;;
16330;SDS011;8275;48.206;16.340;2022-12-18T11:20:53;17.93;;;12.40;;
16330;SDS011;8275;48.206;16.340;2022-12-18T11:23:25;15.57;;;13.60;;
16330;SDS011;8275;48.206;16.340;2022-12-18T11:25:55;21.40;;;13.80;;
16330;SDS011;8275;48.206;16.340;2022-12-18T11:28:34;17.23;;;12.87;;
16330;SDS011;8275;48.206;16.340;2022-12-18T11:34:02;21.17;;;13.43;;
16330;SDS011;8275;48.206;16.340;2022-12-18T11:36:54;21.63;;;13.23;;
16330;SDS011;8275;48.206;16.340;2022-12-18T11:39:29;21.23;;;15.47;;
16330;SDS011;8275;48.206;16.340;2022-12-18T11:42:05;13.27;;;10.63;;
16330;SDS011;8275;48.206;16.340;2022-12-18T11:44:43;19.27;;;12.00;;
16330;SDS011;8275;48.206;16.340;2022-12-18T11:47:20;18.23;;;13.07;;
16330;SDS011;8275;48.206;16.340;2022-12-18T11:49:59;18.20;;;13.57;;
16330;SDS011;8275;48.206;16.340;2022-12-18T11:52:31;19.83;;;13.97;;
16330;SDS011;8275;48.206;16.340;2022-12-18T11:55:09;22.53;;;12.93;;
16330;SDS011;8275;48.206;16.340;2022-12-18T11:57:43;21.53;;;16.70;;
16330;SDS011;8275;48.206;16.340;2022-12-18T12:00:20;19.50;;;13.20;;
16330;SDS011;8275;48.206;16.340;2022-12-18T12:03:07;22.07;;;14.43;;
16330;SDS011;8275;48.206;16.340;2022-12-18T12:06:12;19.27;;;12.97;;
16330;SDS011;8275;48.206;16.340;2022-12-18T12:08:52;20.77;;;13.23;;
16330;SDS011;8275;48.206;16.340;2022-12-18T12:11:33;26.97;;;12.67;;
16330;SDS011;8275;48.206;16.340;2022-12-18T12:14:18;18.17;;;12.50;;
16330;SDS011;8275;48.206;16.340;2022-12-18T12:17:03;18.00;;;12.73;;
16330;SDS011;8275;48.206;16.340;2022-12-18T12:19:45;16.80;;;13.13;;
16330;SDS011;8275;48.206;16.340;2022-12-18T12:22:27;20.80;;;14.37;;
16330;SDS011;8275;48.206;16.340;2022-12-18T12:25:18;19.00;;;13.93;;
16330;SDS011;8275;48.206;16.340;2022-12-18T12:28:00;18.63;;;15.40;;
16330;SDS011;8275;48.206;16.340;2022-12-18T12:30:46;15.40;;;11.77;;
16330;SDS011;8275;48.206;16.340;2022-12-18T12:33:31;18.63;;;12.47;;
16330;SDS011;8275;48.206;16.340;2022-12-18T12:36:13;16.97;;;11.70;;
16330;SDS011;8275;48.206;16.340;2022-12-18T12:38:51;16.90;;;12.40;;
16330;SDS011;8275;48.206;16.340;2022-12-18T12:41:27;16.70;;;14.10;;
16330;SDS011;8275;48.206;16.340;2022-12-18T12:44:19;21.27;;;13.33;;
16330;SDS011;8275;48.206;16.340;2022-12-18T12:46:55;15.70;;;13.57;;
16330;SDS011;8275;48.206;16.340;2022-12-18T12:49:30;16.70;;;12.50;;
16330;SDS011;8275;48.206;16.340;2022-12-18T12:52:07;22.63;;;16.50;;
16330;SDS011;8275;48.206;16.340;2022-12-18T12:54:44;16.37;;;11.70;;
16330;SDS011;8275;48.206;16.340;2022-12-18T12:57:15;15.83;;;14.07;;
16330;SDS011;8275;48.206;16.340;2022-12-18T12:59:51;14.27;;;12.00;;
16330;SDS011;8275;48.206;16.340;2022-12-18T13:02:28;20.20;;;13.87;;
16330;SDS011;8275;48.206;16.340;2022-12-18T13:05:06;17.03;;;14.10;;
16330;SDS011;8275;48.206;16.340;2022-12-18T13:07:46;17.40;;;13.70;;
16330;SDS011;8275;48.206;16.340;2022-12-18T13:10:27;16.27;;;13.00;;
16330;SDS011;8275;48.206;16.340;2022-12-18T13:13:03;21.33;;;14.77;;
16330;SDS011;8275;48.206;16.340;2022-12-18T13:15:41;20.83;;;13.23;;
16330;SDS011;8275;48.206;16.340;2022-12-18T13:18:13;18.70;;;13.90;;
16330;SDS011;8275;48.206;16.340;2022-12-18T13:20:49;18.57;;;12.67;;
16330;SDS011;8275;48.206;16.340;2022-12-18T13:23:32;19.40;;;11.80;;
16330;SDS011;8275;48.206;16.340;2022-12-18T13:29:02;24.50;;;16.43;;
16330;SDS011;8275;48.206;16.340;2022-12-18T13:34:28;16.20;;;13.90;;
16330;SDS011;8275;48.206;16.340;2022-12-18T13:43:30;16.60;;;12.93;;
16330;SDS011;8275;48.206;16.340;2022-12-18T13:46:18;18.80;;;12.33;;
16330;SDS011;8275;48.206;16.340;2022-12-18T13:48:57;18.77;;;13.87;;
16330;SDS011;8275;48.206;16.340;2022-12-18T13:51:29;20.77;;;14.83;;
16330;SDS011;8275;48.206;16.340;2022-12-18T13:54:02;19.70;;;14.37;;
16330;SDS011;8275;48.206;16.340;2022-12-18T13:56:45;21.63;;;14.03;;
16330;SDS011;8275;48.206;16.340;2022-12-18T13:59:18;16.17;;;11.27;;
16330;SDS011;8275;48.206;16.340;2022-12-18T14:01:51;17.50;;;13.47;;
16330;SDS011;8275;48.206;16.340;2022-12-18T14:04:25;18.50;;;11.77;;
16330;SDS011;8275;48.206;16.340;2022-12-18T14:06:57;19.53;;;13.97;;
16330;SDS011;8275;48.206;16.340;2022-12-18T14:09:31;17.47;;;12.43;;
16330;SDS011;8275;48.206;16.340;2022-12-18T14:12:06;20.60;;;14.13;;
16330;SDS011;8275;48.206;16.340;2022-12-18T14:15:02;15.67;;;12.93;;
16330;SDS011;8275;48.206;16.340;2022-12-18T14:17:35;22.67;;;15.17;;
16330;SDS011;8275;48.206;16.340;2022-12-18T14:20:04;21.10;;;14.83;;
16330;SDS011;8275;48.206;16.340;2022-12-18T14:22:42;22.23;;;15.43;;
16330;SDS011;8275;48.206;16.340;2022-12-18T14:25:14;17.03;;;13.63;;
16330;SDS011;8275;48.206;16.340;2022-12-18T14:27:47;19.10;;;14.00;;
16330;SDS011;8275;48.206;16.340;2022-12-18T14:30:27;14.67;;;12.60;;
16330;SDS011;8275;48.206;16.340;2022-12-18T14:33:01;20.03;;;14.97;;
16330;SDS011;8275;48.206;16.340;2022-12-18T14:35:32;17.87;;;12.80;;
16330;SDS011;8275;48.206;16.340;2022-12-18T14:38:10;19.73;;;15.23;;
16330;SDS011;8275;48.206;16.340;2022-12-18T14:40:57;21.13;;;15.73;;
16330;SDS011;8275;48.206;16.340;2022-12-18T14:43:27;24.53;;;17.83;;
16330;SDS011;8275;48.206;16.340;2022-12-18T14:46:00;29.70;;;16.43;;
16330;SDS011;8275;48.206;16.340;2022-12-18T14:48:33;26.07;;;16.87;;
16330;SDS011;8275;48.206;16.340;2022-12-18T14:51:06;21.43;;;14.70;;
16330;SDS011;8275;48.206;16.340;2022-12-18T14:53:44;24.10;;;16.20;;
16330;SDS011;8275;48.206;16.340;2022-12-18T14:56:20;24.27;;;15.87;;
16330;SDS011;8275;48.206;16.340;2022-12-18T14:58:52;26.43;;;17.80;;
16330;SDS011;8275;48.206;16.340;2022-12-18T15:01:26;20.20;;;15.27;;
16330;SDS011;8275;48.206;16.340;2022-12-18T15:03:58;21.33;;;13.83;;
16330;SDS011;8275;48.206;16.340;2022-12-18T15:06:30;27.57;;;18.93;;
16330;SDS011;8275;48.206;16.340;2022-12-18T15:09:02;20.30;;;14.57;;
16330;SDS011;8275;48.206;16.340;2022-12-18T15:11:47;22.80;;;14.70;;
16330;SDS011;8275;48.206;16.340;2022-12-18T15:14:33;28.57;;;18.77;;
16330;SDS011;8275;48.206;16.340;2022-12-18T15:17:17;18.83;;;13.83;;
16330;SDS011;8275;48.206;16.340;2022-12-18T15:19:52;22.43;;;15.03;;
16330;SDS011;8275;48.206;16.340;2022-12-18T15:22:29;24.60;;;15.80;;